sensor_id;sensor_type;location;lat;lon;timestamp;P1;durP1;ratioP1;P2;durP2;ratioP2
9789;SDS011;4934;50.852;8.098;2023-12-22T00:00:31;16.92;;;1.67;;
9789;SDS011;4934;50.852;8.098;2023-12-22T00:02:57;12.05;;;1.27;;
9789;SDS011;4934;50.852;8.098;2023-12-22T00:05:22;7.47;;;1.27;;
9789;SDS011;4934;50.852;8.098;2023-12-22T00:07:48;5.65;;;1.15;;
9789;SDS011;4934;50.852;8.098;2023-12-22T00:10:13;7.68;;;1.27;;
9789;SDS011;4934;50.852;8.098;2023-12-22T00:12:39;8.68;;;0.93;;
9789;SDS011;4934;50.852;8.098;2023-12-22T00:15:20;4.65;;;1.10;;
9789;SDS011;4934;50.852;8.098;2023-12-22T00:17:47;9.15;;;1.23;;
9789;SDS011;4934;50.852;8.098;2023-12-22T00:20:13;4.15;;;1.02;;
9789;SDS011;4934;50.852;8.098;2023-12-22T00:22:39;8.18;;;0.90;;
9789;SDS011;4934;50.852;8.098;2023-12-22T00:25:05;5.95;;;1.52;;
9789;SDS011;4934;50.852;8.098;2023-12-22T00:27:33;8.23;;;1.30;;
9789;SDS011;4934;50.852;8.098;2023-12-22T00:29:59;16.52;;;1.08;;
9789;SDS011;4934;50.852;8.098;2023-12-22T00:32:24;7.78;;;1.33;;
9789;SDS011;4934;50.852;8.098;2023-12-22T00:34:51;4.53;;;0.85;;
9789;SDS011;4934;50.852;8.098;2023-12-22T00:37:17;4.28;;;0.90;;
9789;SDS011;4934;50.852;8.098;2023-12-22T00:39:42;3.78;;;0.60;;
9789;SDS011;4934;50.852;8.098;2023-12-22T00:42:08;5.13;;;0.80;;
9789;SDS011;4934;50.852;8.098;2023-12-22T00:44:33;8.40;;;1.73;;
9789;SDS011;4934;50.852;8.098;2023-12-22T00:46:59;8.57;;;1.42;;
9789;SDS011;4934;50.852;8.098;2023-12-22T00:49:35;12.57;;;1.52;;
9789;SDS011;4934;50.852;8.098;2023-12-22T00:52:00;3.42;;;0.80;;
9789;SDS011;4934;50.852;8.098;2023-12-22T00:54:26;5.00;;;0.93;;
9789;SDS011;4934;50.852;8.098;2023-12-22T00:57:04;6.50;;;0.90;;
9789;SDS011;4934;50.852;8.098;2023-12-22T00:59:30;8.88;;;0.90;;
9789;SDS011;4934;50.852;8.098;2023-12-22T01:01:56;9.00;;;1.17;;
9789;SDS011;4934;50.852;8.098;2023-12-22T01:04:21;4.18;;;0.77;;
9789;SDS011;4934;50.852;8.098;2023-12-22T01:06:47;9.32;;;1.30;;
9789;SDS011;4934;50.852;8.098;2023-12-22T01:09:12;9.02;;;1.48;;
9789;SDS011;4934;50.852;8.098;2023-12-22T01:11:40;11.48;;;1.38;;
9789;SDS011;4934;50.852;8.098;2023-12-22T01:14:05;8.00;;;0.90;;
9789;SDS011;4934;50.852;8.098;2023-12-22T01:16:32;8.30;;;1.30;;
9789;SDS011;4934;50.852;8.098;2023-12-22T01:18:58;6.93;;;1.33;;
9789;SDS011;4934;50.852;8.098;2023-12-22T01:21:23;16.65;;;4.30;;
9789;SDS011;4934;50.852;8.098;2023-12-22T01:23:49;6.93;;;1.13;;
9789;SDS011;4934;50.852;8.098;2023-12-22T01:26:14;11.38;;;1.70;;
9789;SDS011;4934;50.852;8.098;2023-12-22T01:28:40;13.65;;;2.63;;
9789;SDS011;4934;50.852;8.098;2023-12-22T01:31:06;5.00;;;0.90;;
9789;SDS011;4934;50.852;8.098;2023-12-22T01:33:32;12.38;;;1.58;;
9789;SDS011;4934;50.852;8.098;2023-12-22T01:35:57;14.98;;;2.28;;
9789;SDS011;4934;50.852;8.098;2023-12-22T01:38:23;10.57;;;1.52;;
9789;SDS011;4934;50.852;8.098;2023-12-22T01:40:48;9.88;;;1.50;;
9789;SDS011;4934;50.852;8.098;2023-12-22T01:43:14;9.23;;;1.10;;
9789;SDS011;4934;50.852;8.098;2023-12-22T01:45:42;5.93;;;1.25;;
9789;SDS011;4934;50.852;8.098;2023-12-22T01:48:09;4.03;;;1.15;;
9789;SDS011;4934;50.852;8.098;2023-12-22T01:53:26;6.50;;;1.15;;
9789;SDS011;4934;50.852;8.098;2023-12-22T01:55:52;12.65;;;1.52;;
9789;SDS011;4934;50.852;8.098;2023-12-22T01:58:19;10.52;;;1.30;;
9789;SDS011;4934;50.852;8.098;2023-12-22T02:00:46;5.18;;;1.60;;
9789;SDS011;4934;50.852;8.098;2023-12-22T02:03:12;12.00;;;1.67;;
9789;SDS011;4934;50.852;8.098;2023-12-22T02:05:40;8.82;;;1.40;;
9789;SDS011;4934;50.852;8.098;2023-12-22T02:08:06;7.32;;;1.40;;
9789;SDS011;4934;50.852;8.098;2023-12-22T02:10:32;6.03;;;1.00;;
9789;SDS011;4934;50.852;8.098;2023-12-22T02:12:57;7.82;;;0.93;;
9789;SDS011;4934;50.852;8.098;2023-12-22T02:15:23;5.55;;;1.30;;
9789;SDS011;4934;50.852;8.098;2023-12-22T02:17:59;8.63;;;1.45;;
9789;SDS011;4934;50.852;8.098;2023-12-22T02:20:49;3.38;;;2.30;;
9789;SDS011;4934;50.852;8.098;2023-12-22T02:23:15;5.13;;;0.98;;
9789;SDS011;4934;50.852;8.098;2023-12-22T02:25:41;6.57;;;0.88;;
9789;SDS011;4934;50.852;8.098;2023-12-22T02:28:21;8.00;;;0.95;;
9789;SDS011;4934;50.852;8.098;2023-12-22T02:30:59;7.10;;;0.82;;
9789;SDS011;4934;50.852;8.098;2023-12-22T02:33:34;7.05;;;0.70;;
9789;SDS011;4934;50.852;8.098;2023-12-22T02:36:03;3.55;;;0.50;;
9789;SDS011;4934;50.852;8.098;2023-12-22T02:38:29;2.33;;;0.40;;
9789;SDS011;4934;50.852;8.098;2023-12-22T02:40:56;5.55;;;0.50;;
9789;SDS011;4934;50.852;8.098;2023-12-22T02:43:22;1.63;;;0.60;;
9789;SDS011;4934;50.852;8.098;2023-12-22T02:45:51;2.42;;;0.50;;
9789;SDS011;4934;50.852;8.098;2023-12-22T02:48:16;2.50;;;0.57;;
9789;SDS011;4934;50.852;8.098;2023-12-22T02:50:42;2.28;;;0.55;;
9789;SDS011;4934;50.852;8.098;2023-12-22T02:53:07;2.53;;;0.60;;
9789;SDS011;4934;50.852;8.098;2023-12-22T02:55:33;1.77;;;0.47;;
9789;SDS011;4934;50.852;8.098;2023-12-22T02:57:59;3.88;;;0.55;;
9789;SDS011;4934;50.852;8.098;2023-12-22T03:00:24;3.72;;;0.60;;
9789;SDS011;4934;50.852;8.098;2023-12-22T03:02:50;2.17;;;0.50;;
9789;SDS011;4934;50.852;8.098;2023-12-22T03:05:15;2.83;;;0.30;;
9789;SDS011;4934;50.852;8.098;2023-12-22T03:07:41;3.25;;;0.45;;
9789;SDS011;4934;50.852;8.098;2023-12-22T03:10:06;5.03;;;0.50;;
9789;SDS011;4934;50.852;8.098;2023-12-22T03:12:32;2.63;;;0.40;;
9789;SDS011;4934;50.852;8.098;2023-12-22T03:14:58;1.60;;;0.60;;
9789;SDS011;4934;50.852;8.098;2023-12-22T03:17:23;2.30;;;0.30;;
9789;SDS011;4934;50.852;8.098;2023-12-22T03:19:49;0.65;;;0.40;;
9789;SDS011;4934;50.852;8.098;2023-12-22T03:22:14;2.10;;;0.40;;
9789;SDS011;4934;50.852;8.098;2023-12-22T03:24:40;2.05;;;0.22;;
9789;SDS011;4934;50.852;8.098;2023-12-22T03:27:05;3.40;;;2.30;;
9789;SDS011;4934;50.852;8.098;2023-12-22T03:29:31;2.85;;;0.50;;
9789;SDS011;4934;50.852;8.098;2023-12-22T03:31:57;1.10;;;0.45;;
9789;SDS011;4934;50.852;8.098;2023-12-22T03:34:22;1.23;;;0.40;;
9789;SDS011;4934;50.852;8.098;2023-12-22T03:36:48;2.37;;;0.60;;
9789;SDS011;4934;50.852;8.098;2023-12-22T03:39:25;2.78;;;0.40;;
9789;SDS011;4934;50.852;8.098;2023-12-22T03:42:01;1.60;;;0.37;;
9789;SDS011;4934;50.852;8.098;2023-12-22T03:44:26;3.40;;;0.60;;
9789;SDS011;4934;50.852;8.098;2023-12-22T03:46:55;4.00;;;0.70;;
9789;SDS011;4934;50.852;8.098;2023-12-22T03:49:21;1.75;;;0.63;;
9789;SDS011;4934;50.852;8.098;2023-12-22T03:51:46;2.35;;;0.70;;
9789;SDS011;4934;50.852;8.098;2023-12-22T03:54:12;2.03;;;0.35;;
9789;SDS011;4934;50.852;8.098;2023-12-22T03:56:39;3.75;;;0.65;;
9789;SDS011;4934;50.852;8.098;2023-12-22T03:59:04;4.30;;;0.63;;
9789;SDS011;4934;50.852;8.098;2023-12-22T04:01:30;1.90;;;0.68;;
9789;SDS011;4934;50.852;8.098;2023-12-22T04:03:55;3.33;;;0.73;;
9789;SDS011;4934;50.852;8.098;2023-12-22T04:06:21;1.67;;;0.43;;
9789;SDS011;4934;50.852;8.098;2023-12-22T04:08:46;1.98;;;0.50;;
9789;SDS011;4934;50.852;8.098;2023-12-22T04:11:12;4.10;;;0.52;;
9789;SDS011;4934;50.852;8.098;2023-12-22T04:13:38;0.20;;;0.20;;
9789;SDS011;4934;50.852;8.098;2023-12-22T04:16:03;0.45;;;0.30;;
9789;SDS011;4934;50.852;8.098;2023-12-22T04:18:35;2.08;;;0.30;;
9789;SDS011;4934;50.852;8.098;2023-12-22T04:21:04;1.95;;;0.20;;
9789;SDS011;4934;50.852;8.098;2023-12-22T04:23:29;4.28;;;0.57;;
9789;SDS011;4934;50.852;8.098;2023-12-22T04:25:55;2.08;;;0.50;;
9789;SDS011;4934;50.852;8.098;2023-12-22T04:28:20;4.60;;;0.63;;
9789;SDS011;4934;50.852;8.098;2023-12-22T04:30:46;2.80;;;0.80;;
9789;SDS011;4934;50.852;8.098;2023-12-22T04:33:12;4.97;;;0.57;;
9789;SDS011;4934;50.852;8.098;2023-12-22T04:35:37;2.35;;;0.77;;
9789;SDS011;4934;50.852;8.098;2023-12-22T04:38:03;1.02;;;0.50;;
9789;SDS011;4934;50.852;8.098;2023-12-22T04:43:03;6.50;;;0.70;;
9789;SDS011;4934;50.852;8.098;2023-12-22T04:45:29;1.67;;;0.50;;
9789;SDS011;4934;50.852;8.098;2023-12-22T04:47:54;2.00;;;0.55;;
9789;SDS011;4934;50.852;8.098;2023-12-22T04:50:20;3.65;;;0.73;;
9789;SDS011;4934;50.852;8.098;2023-12-22T04:52:45;8.82;;;1.02;;
9789;SDS011;4934;50.852;8.098;2023-12-22T04:55:11;9.07;;;1.10;;
9789;SDS011;4934;50.852;8.098;2023-12-22T04:57:37;5.03;;;0.90;;
9789;SDS011;4934;50.852;8.098;2023-12-22T05:00:02;7.50;;;1.23;;
9789;SDS011;4934;50.852;8.098;2023-12-22T05:02:28;7.53;;;1.48;;
9789;SDS011;4934;50.852;8.098;2023-12-22T05:04:54;8.85;;;1.50;;
9789;SDS011;4934;50.852;8.098;2023-12-22T05:07:19;11.57;;;1.88;;
9789;SDS011;4934;50.852;8.098;2023-12-22T05:09:45;11.63;;;2.47;;
9789;SDS011;4934;50.852;8.098;2023-12-22T05:12:11;6.75;;;1.38;;
9789;SDS011;4934;50.852;8.098;2023-12-22T05:14:36;12.55;;;2.25;;
9789;SDS011;4934;50.852;8.098;2023-12-22T05:17:02;12.77;;;2.47;;
9789;SDS011;4934;50.852;8.098;2023-12-22T05:19:28;14.27;;;3.28;;
9789;SDS011;4934;50.852;8.098;2023-12-22T05:21:53;18.55;;;3.00;;
9789;SDS011;4934;50.852;8.098;2023-12-22T05:24:21;14.68;;;4.07;;
9789;SDS011;4934;50.852;8.098;2023-12-22T05:26:47;21.73;;;3.55;;
9789;SDS011;4934;50.852;8.098;2023-12-22T05:29:13;16.52;;;2.75;;
9789;SDS011;4934;50.852;8.098;2023-12-22T05:31:38;15.05;;;2.63;;
9789;SDS011;4934;50.852;8.098;2023-12-22T05:34:05;14.00;;;4.25;;
9789;SDS011;4934;50.852;8.098;2023-12-22T05:36:31;17.52;;;2.40;;
9789;SDS011;4934;50.852;8.098;2023-12-22T05:38:56;13.95;;;2.50;;
9789;SDS011;4934;50.852;8.098;2023-12-22T05:41:22;14.13;;;2.95;;
9789;SDS011;4934;50.852;8.098;2023-12-22T05:43:48;13.85;;;2.47;;
9789;SDS011;4934;50.852;8.098;2023-12-22T05:46:13;10.10;;;1.77;;
9789;SDS011;4934;50.852;8.098;2023-12-22T05:48:39;15.00;;;2.20;;
9789;SDS011;4934;50.852;8.098;2023-12-22T05:51:04;19.20;;;2.45;;
9789;SDS011;4934;50.852;8.098;2023-12-22T05:53:35;19.67;;;3.40;;
9789;SDS011;4934;50.852;8.098;2023-12-22T05:56:16;11.57;;;2.42;;
9789;SDS011;4934;50.852;8.098;2023-12-22T05:58:45;14.50;;;1.98;;
9789;SDS011;4934;50.852;8.098;2023-12-22T06:01:20;12.25;;;2.40;;
9789;SDS011;4934;50.852;8.098;2023-12-22T06:03:46;21.63;;;3.20;;
9789;SDS011;4934;50.852;8.098;2023-12-22T06:06:12;8.10;;;2.00;;
9789;SDS011;4934;50.852;8.098;2023-12-22T06:08:38;10.25;;;2.53;;
9789;SDS011;4934;50.852;8.098;2023-12-22T06:13:32;5.93;;;1.77;;
9789;SDS011;4934;50.852;8.098;2023-12-22T06:15:57;9.45;;;1.85;;
9789;SDS011;4934;50.852;8.098;2023-12-22T06:18:24;9.55;;;1.15;;
9789;SDS011;4934;50.852;8.098;2023-12-22T06:20:50;11.45;;;1.85;;
9789;SDS011;4934;50.852;8.098;2023-12-22T06:23:16;6.75;;;1.35;;
9789;SDS011;4934;50.852;8.098;2023-12-22T06:25:42;8.50;;;1.38;;
9789;SDS011;4934;50.852;8.098;2023-12-22T06:28:07;3.92;;;0.80;;
9789;SDS011;4934;50.852;8.098;2023-12-22T06:30:33;2.78;;;1.10;;
9789;SDS011;4934;50.852;8.098;2023-12-22T06:32:58;5.05;;;1.08;;
9789;SDS011;4934;50.852;8.098;2023-12-22T06:35:24;5.53;;;0.82;;
9789;SDS011;4934;50.852;8.098;2023-12-22T06:37:59;6.95;;;1.17;;
9789;SDS011;4934;50.852;8.098;2023-12-22T06:40:28;3.35;;;1.13;;
9789;SDS011;4934;50.852;8.098;2023-12-22T06:42:54;4.68;;;0.90;;
9789;SDS011;4934;50.852;8.098;2023-12-22T06:45:19;3.20;;;1.08;;
9789;SDS011;4934;50.852;8.098;2023-12-22T06:47:45;3.15;;;1.10;;
9789;SDS011;4934;50.852;8.098;2023-12-22T06:50:11;7.25;;;1.15;;
9789;SDS011;4934;50.852;8.098;2023-12-22T06:52:36;9.60;;;1.10;;
9789;SDS011;4934;50.852;8.098;2023-12-22T06:55:10;5.82;;;1.75;;
9789;SDS011;4934;50.852;8.098;2023-12-22T06:57:35;3.75;;;1.17;;
9789;SDS011;4934;50.852;8.098;2023-12-22T07:00:03;15.70;;;1.60;;
9789;SDS011;4934;50.852;8.098;2023-12-22T07:02:29;9.15;;;1.25;;
9789;SDS011;4934;50.852;8.098;2023-12-22T07:07:50;8.82;;;1.73;;
9789;SDS011;4934;50.852;8.098;2023-12-22T07:10:16;12.63;;;1.95;;
9789;SDS011;4934;50.852;8.098;2023-12-22T07:12:41;17.30;;;2.17;;
9789;SDS011;4934;50.852;8.098;2023-12-22T07:15:07;8.18;;;1.48;;
9789;SDS011;4934;50.852;8.098;2023-12-22T07:17:33;7.82;;;2.00;;
9789;SDS011;4934;50.852;8.098;2023-12-22T07:19:59;7.10;;;1.60;;
9789;SDS011;4934;50.852;8.098;2023-12-22T07:22:28;11.52;;;2.33;;
9789;SDS011;4934;50.852;8.098;2023-12-22T07:25:03;13.57;;;2.75;;
9789;SDS011;4934;50.852;8.098;2023-12-22T07:27:30;9.32;;;1.60;;
9789;SDS011;4934;50.852;8.098;2023-12-22T07:29:55;8.88;;;2.50;;
9789;SDS011;4934;50.852;8.098;2023-12-22T07:32:21;6.28;;;1.60;;
9789;SDS011;4934;50.852;8.098;2023-12-22T07:34:47;10.75;;;2.72;;
9789;SDS011;4934;50.852;8.098;2023-12-22T07:37:12;9.70;;;2.30;;
9789;SDS011;4934;50.852;8.098;2023-12-22T07:39:38;9.75;;;1.65;;
9789;SDS011;4934;50.852;8.098;2023-12-22T07:42:04;5.82;;;2.05;;
9789;SDS011;4934;50.852;8.098;2023-12-22T07:44:29;13.82;;;2.60;;
9789;SDS011;4934;50.852;8.098;2023-12-22T07:46:56;16.23;;;2.50;;
9789;SDS011;4934;50.852;8.098;2023-12-22T07:49:30;11.18;;;2.72;;
9789;SDS011;4934;50.852;8.098;2023-12-22T07:51:56;18.00;;;3.10;;
9789;SDS011;4934;50.852;8.098;2023-12-22T07:54:22;18.15;;;3.28;;
9789;SDS011;4934;50.852;8.098;2023-12-22T07:56:47;15.13;;;3.08;;
9789;SDS011;4934;50.852;8.098;2023-12-22T08:01:51;14.82;;;3.45;;
9789;SDS011;4934;50.852;8.098;2023-12-22T08:04:17;17.98;;;4.22;;
9789;SDS011;4934;50.852;8.098;2023-12-22T08:06:43;29.05;;;4.15;;
9789;SDS011;4934;50.852;8.098;2023-12-22T08:09:24;18.73;;;4.55;;
9789;SDS011;4934;50.852;8.098;2023-12-22T08:11:49;14.32;;;3.63;;
9789;SDS011;4934;50.852;8.098;2023-12-22T08:14:18;15.02;;;3.65;;
9789;SDS011;4934;50.852;8.098;2023-12-22T08:16:45;12.15;;;3.95;;
9789;SDS011;4934;50.852;8.098;2023-12-22T08:19:11;14.95;;;3.80;;
9789;SDS011;4934;50.852;8.098;2023-12-22T08:21:36;22.67;;;4.72;;
9789;SDS011;4934;50.852;8.098;2023-12-22T08:24:06;18.38;;;4.18;;
9789;SDS011;4934;50.852;8.098;2023-12-22T08:28:57;14.68;;;2.78;;
9789;SDS011;4934;50.852;8.098;2023-12-22T08:31:23;14.23;;;3.20;;
9789;SDS011;4934;50.852;8.098;2023-12-22T08:33:48;15.75;;;3.40;;
9789;SDS011;4934;50.852;8.098;2023-12-22T08:36:14;17.35;;;5.45;;
9789;SDS011;4934;50.852;8.098;2023-12-22T08:38:40;17.73;;;4.10;;
9789;SDS011;4934;50.852;8.098;2023-12-22T08:41:06;8.48;;;3.00;;
9789;SDS011;4934;50.852;8.098;2023-12-22T08:43:33;18.10;;;3.53;;
9789;SDS011;4934;50.852;8.098;2023-12-22T08:46:00;19.00;;;3.67;;
9789;SDS011;4934;50.852;8.098;2023-12-22T08:48:27;13.82;;;3.13;;
9789;SDS011;4934;50.852;8.098;2023-12-22T08:50:54;12.10;;;2.80;;
9789;SDS011;4934;50.852;8.098;2023-12-22T08:53:20;8.35;;;2.70;;
9789;SDS011;4934;50.852;8.098;2023-12-22T08:55:50;18.35;;;5.28;;
9789;SDS011;4934;50.852;8.098;2023-12-22T08:58:38;17.55;;;2.80;;
9789;SDS011;4934;50.852;8.098;2023-12-22T09:01:07;8.95;;;2.13;;
9789;SDS011;4934;50.852;8.098;2023-12-22T09:03:35;14.52;;;3.08;;
9789;SDS011;4934;50.852;8.098;2023-12-22T09:06:17;11.02;;;2.45;;
9789;SDS011;4934;50.852;8.098;2023-12-22T09:09:18;10.02;;;2.72;;
9789;SDS011;4934;50.852;8.098;2023-12-22T09:11:49;7.68;;;2.92;;
9789;SDS011;4934;50.852;8.098;2023-12-22T09:14:32;16.27;;;3.75;;
9789;SDS011;4934;50.852;8.098;2023-12-22T09:17:21;16.27;;;5.60;;
9789;SDS011;4934;50.852;8.098;2023-12-22T09:19:48;17.95;;;3.90;;
9789;SDS011;4934;50.852;8.098;2023-12-22T09:22:15;13.43;;;3.30;;
9789;SDS011;4934;50.852;8.098;2023-12-22T09:25:39;23.65;;;5.18;;
9789;SDS011;4934;50.852;8.098;2023-12-22T09:28:13;22.27;;;4.35;;
9789;SDS011;4934;50.852;8.098;2023-12-22T09:30:42;20.23;;;5.15;;
9789;SDS011;4934;50.852;8.098;2023-12-22T09:33:12;30.50;;;5.10;;
9789;SDS011;4934;50.852;8.098;2023-12-22T09:38:27;16.73;;;4.65;;
9789;SDS011;4934;50.852;8.098;2023-12-22T09:40:58;26.23;;;5.93;;
9789;SDS011;4934;50.852;8.098;2023-12-22T09:43:26;20.03;;;4.70;;
9789;SDS011;4934;50.852;8.098;2023-12-22T09:45:52;25.33;;;4.75;;
9789;SDS011;4934;50.852;8.098;2023-12-22T09:48:22;23.27;;;4.55;;
9789;SDS011;4934;50.852;8.098;2023-12-22T09:50:59;25.50;;;5.15;;
9789;SDS011;4934;50.852;8.098;2023-12-22T09:53:28;24.77;;;5.30;;
9789;SDS011;4934;50.852;8.098;2023-12-22T09:58:27;21.65;;;4.82;;
9789;SDS011;4934;50.852;8.098;2023-12-22T10:00:56;27.17;;;7.65;;
9789;SDS011;4934;50.852;8.098;2023-12-22T10:03:22;28.08;;;6.05;;
9789;SDS011;4934;50.852;8.098;2023-12-22T10:05:51;22.50;;;4.63;;
9789;SDS011;4934;50.852;8.098;2023-12-22T10:08:16;23.33;;;5.43;;
9789;SDS011;4934;50.852;8.098;2023-12-22T10:10:44;18.45;;;4.57;;
9789;SDS011;4934;50.852;8.098;2023-12-22T10:13:12;22.30;;;4.55;;
9789;SDS011;4934;50.852;8.098;2023-12-22T10:15:39;16.63;;;4.22;;
9789;SDS011;4934;50.852;8.098;2023-12-22T10:18:06;21.55;;;5.22;;
9789;SDS011;4934;50.852;8.098;2023-12-22T10:20:37;24.65;;;5.53;;
9789;SDS011;4934;50.852;8.098;2023-12-22T10:23:03;23.65;;;5.32;;
9789;SDS011;4934;50.852;8.098;2023-12-22T10:25:30;29.77;;;5.22;;
9789;SDS011;4934;50.852;8.098;2023-12-22T10:27:57;25.27;;;6.20;;
9789;SDS011;4934;50.852;8.098;2023-12-22T10:30:24;37.00;;;6.35;;
9789;SDS011;4934;50.852;8.098;2023-12-22T10:32:50;28.50;;;6.00;;
9789;SDS011;4934;50.852;8.098;2023-12-22T10:35:17;25.08;;;5.28;;
9789;SDS011;4934;50.852;8.098;2023-12-22T10:37:42;27.27;;;5.25;;
9789;SDS011;4934;50.852;8.098;2023-12-22T10:40:25;22.63;;;5.35;;
9789;SDS011;4934;50.852;8.098;2023-12-22T10:42:51;30.17;;;7.22;;
9789;SDS011;4934;50.852;8.098;2023-12-22T10:45:20;31.35;;;6.15;;
9789;SDS011;4934;50.852;8.098;2023-12-22T10:47:48;32.22;;;7.07;;
9789;SDS011;4934;50.852;8.098;2023-12-22T10:50:16;25.58;;;7.00;;
9789;SDS011;4934;50.852;8.098;2023-12-22T10:55:16;20.90;;;5.13;;
9789;SDS011;4934;50.852;8.098;2023-12-22T10:57:44;22.42;;;6.90;;
9789;SDS011;4934;50.852;8.098;2023-12-22T11:02:38;16.35;;;4.80;;
9789;SDS011;4934;50.852;8.098;2023-12-22T11:05:07;24.00;;;4.40;;
9789;SDS011;4934;50.852;8.098;2023-12-22T11:07:37;48.90;;;6.00;;
9789;SDS011;4934;50.852;8.098;2023-12-22T11:10:08;18.70;;;4.97;;
9789;SDS011;4934;50.852;8.098;2023-12-22T11:12:41;13.40;;;3.83;;
9789;SDS011;4934;50.852;8.098;2023-12-22T11:15:10;12.38;;;4.75;;
9789;SDS011;4934;50.852;8.098;2023-12-22T11:20:06;15.00;;;3.88;;
9789;SDS011;4934;50.852;8.098;2023-12-22T11:25:02;15.57;;;3.15;;
9789;SDS011;4934;50.852;8.098;2023-12-22T11:27:29;14.57;;;4.50;;
9789;SDS011;4934;50.852;8.098;2023-12-22T11:30:01;12.43;;;3.20;;
9789;SDS011;4934;50.852;8.098;2023-12-22T11:32:33;13.57;;;3.58;;
9789;SDS011;4934;50.852;8.098;2023-12-22T11:35:01;16.33;;;5.00;;
9789;SDS011;4934;50.852;8.098;2023-12-22T11:37:28;11.85;;;3.50;;
9789;SDS011;4934;50.852;8.098;2023-12-22T11:39:57;12.50;;;3.85;;
9789;SDS011;4934;50.852;8.098;2023-12-22T11:42:24;8.88;;;3.35;;
9789;SDS011;4934;50.852;8.098;2023-12-22T11:44:53;5.57;;;2.58;;
9789;SDS011;4934;50.852;8.098;2023-12-22T11:47:22;8.95;;;2.50;;
9789;SDS011;4934;50.852;8.098;2023-12-22T11:52:18;7.80;;;2.47;;
9789;SDS011;4934;50.852;8.098;2023-12-22T11:54:51;5.80;;;2.45;;
9789;SDS011;4934;50.852;8.098;2023-12-22T11:57:36;5.25;;;2.17;;
9789;SDS011;4934;50.852;8.098;2023-12-22T12:00:03;6.82;;;1.98;;
9789;SDS011;4934;50.852;8.098;2023-12-22T12:02:54;4.77;;;1.27;;
9789;SDS011;4934;50.852;8.098;2023-12-22T12:05:20;2.38;;;1.20;;
9789;SDS011;4934;50.852;8.098;2023-12-22T12:07:46;7.03;;;1.73;;
9789;SDS011;4934;50.852;8.098;2023-12-22T12:13:07;3.58;;;1.88;;
9789;SDS011;4934;50.852;8.098;2023-12-22T12:15:34;4.47;;;1.83;;
9789;SDS011;4934;50.852;8.098;2023-12-22T12:18:00;3.10;;;1.10;;
9789;SDS011;4934;50.852;8.098;2023-12-22T12:20:26;3.28;;;0.80;;
9789;SDS011;4934;50.852;8.098;2023-12-22T12:22:52;5.13;;;1.00;;
9789;SDS011;4934;50.852;8.098;2023-12-22T12:25:21;1.10;;;0.45;;
9789;SDS011;4934;50.852;8.098;2023-12-22T12:28:01;2.38;;;0.80;;
9789;SDS011;4934;50.852;8.098;2023-12-22T12:30:27;1.50;;;0.55;;
9789;SDS011;4934;50.852;8.098;2023-12-22T12:32:53;3.42;;;0.40;;
9789;SDS011;4934;50.852;8.098;2023-12-22T12:35:19;2.95;;;1.30;;
9789;SDS011;4934;50.852;8.098;2023-12-22T12:37:47;0.70;;;0.55;;
9789;SDS011;4934;50.852;8.098;2023-12-22T12:40:13;1.20;;;0.47;;
9789;SDS011;4934;50.852;8.098;2023-12-22T12:42:43;1.45;;;0.88;;
9789;SDS011;4934;50.852;8.098;2023-12-22T12:45:09;2.05;;;0.60;;
9789;SDS011;4934;50.852;8.098;2023-12-22T12:47:35;2.53;;;0.95;;
9789;SDS011;4934;50.852;8.098;2023-12-22T12:50:01;2.45;;;1.45;;
9789;SDS011;4934;50.852;8.098;2023-12-22T12:52:27;3.83;;;1.23;;
9789;SDS011;4934;50.852;8.098;2023-12-22T12:54:53;2.78;;;1.45;;
9789;SDS011;4934;50.852;8.098;2023-12-22T12:57:19;5.78;;;2.47;;
9789;SDS011;4934;50.852;8.098;2023-12-22T12:59:49;6.82;;;3.15;;
9789;SDS011;4934;50.852;8.098;2023-12-22T13:02:18;6.03;;;2.90;;
9789;SDS011;4934;50.852;8.098;2023-12-22T13:04:48;5.95;;;3.03;;
9789;SDS011;4934;50.852;8.098;2023-12-22T13:07:22;6.30;;;3.05;;
9789;SDS011;4934;50.852;8.098;2023-12-22T13:09:48;6.47;;;2.70;;
9789;SDS011;4934;50.852;8.098;2023-12-22T13:12:14;8.15;;;2.70;;
9789;SDS011;4934;50.852;8.098;2023-12-22T13:14:40;8.02;;;2.85;;
9789;SDS011;4934;50.852;8.098;2023-12-22T13:17:05;8.05;;;3.25;;
9789;SDS011;4934;50.852;8.098;2023-12-22T13:19:32;7.18;;;2.65;;
9789;SDS011;4934;50.852;8.098;2023-12-22T13:21:57;6.30;;;2.67;;
9789;SDS011;4934;50.852;8.098;2023-12-22T13:24:23;6.03;;;2.67;;
9789;SDS011;4934;50.852;8.098;2023-12-22T13:27:03;8.07;;;2.80;;
9789;SDS011;4934;50.852;8.098;2023-12-22T13:29:42;5.03;;;2.00;;
9789;SDS011;4934;50.852;8.098;2023-12-22T13:32:13;6.07;;;1.95;;
9789;SDS011;4934;50.852;8.098;2023-12-22T13:34:45;3.67;;;2.17;;
9789;SDS011;4934;50.852;8.098;2023-12-22T13:37:12;7.97;;;2.63;;
9789;SDS011;4934;50.852;8.098;2023-12-22T13:39:38;6.78;;;2.63;;
9789;SDS011;4934;50.852;8.098;2023-12-22T13:42:04;6.80;;;2.72;;
9789;SDS011;4934;50.852;8.098;2023-12-22T13:44:29;3.97;;;2.00;;
9789;SDS011;4934;50.852;8.098;2023-12-22T13:46:55;4.97;;;1.83;;
9789;SDS011;4934;50.852;8.098;2023-12-22T13:49:21;5.22;;;1.90;;
9789;SDS011;4934;50.852;8.098;2023-12-22T13:51:46;5.60;;;2.60;;
9789;SDS011;4934;50.852;8.098;2023-12-22T13:54:13;15.65;;;5.97;;
9789;SDS011;4934;50.852;8.098;2023-12-22T13:56:39;6.32;;;2.65;;
9789;SDS011;4934;50.852;8.098;2023-12-22T13:59:09;12.40;;;2.97;;
9789;SDS011;4934;50.852;8.098;2023-12-22T14:01:35;6.63;;;1.90;;
9789;SDS011;4934;50.852;8.098;2023-12-22T14:04:01;8.32;;;3.00;;
9789;SDS011;4934;50.852;8.098;2023-12-22T14:06:28;4.85;;;1.80;;
9789;SDS011;4934;50.852;8.098;2023-12-22T14:08:54;9.55;;;3.05;;
9789;SDS011;4934;50.852;8.098;2023-12-22T14:11:20;3.55;;;2.05;;
9789;SDS011;4934;50.852;8.098;2023-12-22T14:13:46;7.30;;;2.53;;
9789;SDS011;4934;50.852;8.098;2023-12-22T14:16:13;8.00;;;3.05;;
9789;SDS011;4934;50.852;8.098;2023-12-22T14:18:42;7.07;;;2.53;;
9789;SDS011;4934;50.852;8.098;2023-12-22T14:21:08;5.65;;;2.30;;
9789;SDS011;4934;50.852;8.098;2023-12-22T14:23:33;5.28;;;2.45;;
9789;SDS011;4934;50.852;8.098;2023-12-22T14:25:59;6.65;;;2.53;;
9789;SDS011;4934;50.852;8.098;2023-12-22T14:28:24;4.53;;;2.20;;
9789;SDS011;4934;50.852;8.098;2023-12-22T14:30:50;7.90;;;3.08;;
9789;SDS011;4934;50.852;8.098;2023-12-22T14:33:16;7.28;;;2.58;;
9789;SDS011;4934;50.852;8.098;2023-12-22T14:35:41;10.93;;;5.13;;
9789;SDS011;4934;50.852;8.098;2023-12-22T14:38:07;8.23;;;3.55;;
9789;SDS011;4934;50.852;8.098;2023-12-22T14:40:35;6.40;;;3.05;;
9789;SDS011;4934;50.852;8.098;2023-12-22T14:43:00;4.30;;;2.22;;
9789;SDS011;4934;50.852;8.098;2023-12-22T14:45:27;3.20;;;1.85;;
9789;SDS011;4934;50.852;8.098;2023-12-22T14:47:54;5.63;;;2.38;;
9789;SDS011;4934;50.852;8.098;2023-12-22T14:50:40;8.73;;;2.10;;
9789;SDS011;4934;50.852;8.098;2023-12-22T14:53:25;3.13;;;1.88;;
9789;SDS011;4934;50.852;8.098;2023-12-22T14:55:51;10.05;;;2.38;;
9789;SDS011;4934;50.852;8.098;2023-12-22T14:58:27;6.35;;;2.17;;
9789;SDS011;4934;50.852;8.098;2023-12-22T15:01:02;6.05;;;1.95;;
9789;SDS011;4934;50.852;8.098;2023-12-22T15:03:28;4.10;;;1.90;;
9789;SDS011;4934;50.852;8.098;2023-12-22T15:05:54;2.33;;;1.50;;
9789;SDS011;4934;50.852;8.098;2023-12-22T15:08:19;3.33;;;1.85;;
9789;SDS011;4934;50.852;8.098;2023-12-22T15:10:45;4.40;;;1.58;;
9789;SDS011;4934;50.852;8.098;2023-12-22T15:13:11;5.55;;;2.20;;
9789;SDS011;4934;50.852;8.098;2023-12-22T15:15:37;6.20;;;1.80;;
9789;SDS011;4934;50.852;8.098;2023-12-22T15:18:02;7.78;;;2.25;;
9789;SDS011;4934;50.852;8.098;2023-12-22T15:20:28;6.75;;;2.08;;
9789;SDS011;4934;50.852;8.098;2023-12-22T15:22:54;11.43;;;1.80;;
9789;SDS011;4934;50.852;8.098;2023-12-22T15:25:20;7.85;;;2.47;;
9789;SDS011;4934;50.852;8.098;2023-12-22T15:27:46;2.85;;;1.90;;
9789;SDS011;4934;50.852;8.098;2023-12-22T15:30:12;7.07;;;2.55;;
9789;SDS011;4934;50.852;8.098;2023-12-22T15:32:38;5.80;;;2.50;;
9789;SDS011;4934;50.852;8.098;2023-12-22T15:35:04;5.28;;;1.50;;
9789;SDS011;4934;50.852;8.098;2023-12-22T15:37:30;4.18;;;1.52;;
9789;SDS011;4934;50.852;8.098;2023-12-22T15:39:58;3.42;;;1.77;;
9789;SDS011;4934;50.852;8.098;2023-12-22T15:42:25;3.47;;;1.40;;
9789;SDS011;4934;50.852;8.098;2023-12-22T15:44:51;3.60;;;1.27;;
9789;SDS011;4934;50.852;8.098;2023-12-22T15:47:16;3.92;;;1.48;;
9789;SDS011;4934;50.852;8.098;2023-12-22T15:49:43;1.75;;;0.93;;